Time;durP1;ratioP1;P1;durP2;ratioP2;P2;SDS_P1;SDS_P2;PMS_P1;PMS_P2;Temp;Humidity;BMP_temperature;BMP_pressure;BME280_temperature;BME280_humidity;BME280_pressure;Samples;Min_cycle;Max_cycle;Signal;HPM_P1;HPM_P2
2022/08/19 00:04:41;;;;;;;10.02;5.90;;;20.10;99.90;;;;;;12485500;28;20049;-81
2022/08/19 00:10:45;;;;;;;9.70;6.20;;;20.00;99.90;;;;;;12488831;28;20490;-81
2022/08/19 00:16:48;;;;;;;10.75;7.28;;;19.90;99.90;;;;;;12489780;28;20099;-81
2022/08/19 00:22:51;;;;;;;10.52;6.90;;;19.80;99.90;;;;;;12480021;28;20485;-81
2022/08/19 00:28:54;;;;;;;11.15;6.70;;;19.70;99.90;;;;;;12460866;28;20141;-81
2022/08/19 00:34:56;;;;;;;11.85;6.90;;;19.70;99.90;;;;;;12466259;28;20033;-81
2022/08/19 00:40:58;;;;;;;12.27;6.57;;;19.60;99.90;;;;;;12458281;28;20053;-81
2022/08/19 00:47:00;;;;;;;10.05;7.03;;;19.60;99.90;;;;;;12452026;28;20625;-81
2022/08/19 00:53:04;;;;;;;9.82;6.05;;;19.50;99.90;;;;;;12465678;28;20097;-81
2022/08/19 00:59:08;;;;;;;16.33;6.38;;;19.60;99.90;;;;;;12473181;28;20080;-81
2022/08/19 01:05:18;;;;;;;10.80;6.30;;;19.70;99.90;;;;;;12484223;28;20046;-81
2022/08/19 01:11:20;;;;;;;13.18;7.25;;;19.60;99.90;;;;;;12489834;28;20085;-81
2022/08/19 01:17:22;;;;;;;11.35;7.20;;;19.50;99.90;;;;;;12469942;28;20049;-83
2022/08/19 01:23:42;;;;;;;14.63;8.57;;;19.40;99.90;;;;;;12468511;28;20516;-83
2022/08/19 01:29:45;;;;;;;13.90;8.30;;;19.40;99.90;;;;;;12468334;28;20069;-81
2022/08/19 01:35:51;;;;;;;13.80;8.23;;;19.20;99.90;;;;;;12457889;28;20124;-81
2022/08/19 01:41:54;;;;;;;10.02;7.15;;;19.20;99.90;;;;;;12464651;28;20413;-81
2022/08/19 01:47:58;;;;;;;13.80;9.25;;;19.30;99.90;;;;;;12490695;28;20090;-82
2022/08/19 01:54:03;;;;;;;14.75;9.82;;;18.90;99.90;;;;;;12472833;28;20047;-82
2022/08/19 02:00:10;;;;;;;14.20;10.07;;;18.70;99.90;;;;;;12477629;28;20375;-81
2022/08/19 02:06:12;;;;;;;13.07;9.77;;;18.80;99.90;;;;;;12447336;28;20053;-81
2022/08/19 02:12:16;;;;;;;14.05;10.05;;;18.80;99.90;;;;;;12488379;28;20049;-81
2022/08/19 02:18:17;;;;;;;15.63;10.23;;;18.80;99.90;;;;;;12481705;28;20179;-81
2022/08/19 02:24:19;;;;;;;11.02;7.95;;;18.80;99.90;;;;;;12478479;28;20175;-81
2022/08/19 02:30:21;;;;;;;17.52;9.73;;;18.90;99.90;;;;;;12493901;28;20096;-81
2022/08/19 02:36:24;;;;;;;14.73;8.93;;;18.90;99.90;;;;;;12489149;28;20045;-81
2022/08/19 02:42:26;;;;;;;12.03;8.77;;;18.80;99.90;;;;;;12472031;28;20065;-81
2022/08/19 02:48:28;;;;;;;13.32;9.55;;;18.70;99.90;;;;;;12484446;28;20053;-81
2022/08/19 02:54:30;;;;;;;15.85;10.50;;;18.70;99.90;;;;;;12464769;28;20129;-81
2022/08/19 03:00:32;;;;;;;17.00;10.23;;;18.60;99.90;;;;;;12487777;28;20124;-81
2022/08/19 03:06:41;;;;;;;13.50;9.40;;;18.50;99.90;;;;;;12472820;28;20521;-81
2022/08/19 03:12:43;;;;;;;13.75;9.93;;;18.60;99.90;;;;;;12475044;28;20073;-81
2022/08/19 03:18:45;;;;;;;12.77;9.38;;;18.60;99.90;;;;;;12464854;28;20140;-81
2022/08/19 03:24:47;;;;;;;17.40;11.32;;;18.70;99.90;;;;;;12471038;28;20071;-83
2022/08/19 03:30:57;;;;;;;18.33;11.70;;;18.50;99.90;;;;;;12473998;28;20540;-83
2022/08/19 03:37:09;;;;;;;19.55;12.00;;;18.50;99.90;;;;;;12478436;28;20041;-83
2022/08/19 03:43:11;;;;;;;12.50;9.77;;;18.40;99.90;;;;;;12489599;28;20105;-82
2022/08/19 03:49:13;;;;;;;12.15;9.18;;;18.40;99.90;;;;;;12477523;28;20179;-81
2022/08/19 03:55:15;;;;;;;13.98;9.95;;;18.40;99.90;;;;;;12471730;28;20041;-82
2022/08/19 04:01:20;;;;;;;15.32;11.32;;;18.30;99.90;;;;;;12484443;28;20519;-83
2022/08/19 04:07:35;;;;;;;14.82;11.48;;;18.10;99.90;;;;;;12470032;28;20041;-81
2022/08/19 04:13:38;;;;;;;18.08;12.20;;;18.10;99.90;;;;;;12472096;28;20429;-83
2022/08/19 04:19:40;;;;;;;18.63;12.82;;;18.10;99.90;;;;;;12473050;28;20095;-83
2022/08/19 04:25:43;;;;;;;17.38;11.48;;;18.10;99.90;;;;;;12487227;28;20183;-82
2022/08/19 04:31:46;;;;;;;16.70;11.90;;;18.10;99.90;;;;;;12482605;28;20097;-83
2022/08/19 04:37:48;;;;;;;21.08;13.23;;;18.10;99.90;;;;;;12469857;28;20447;-83
2022/08/19 04:43:50;;;;;;;19.02;14.35;;;18.10;99.90;;;;;;12474520;28;20057;-83
2022/08/19 04:49:52;;;;;;;22.02;13.55;;;18.00;99.90;;;;;;12473652;28;20053;-83
2022/08/19 04:55:57;;;;;;;15.23;11.32;;;18.00;99.90;;;;;;12485260;28;20395;-82
2022/08/19 05:02:00;;;;;;;17.90;13.02;;;18.10;99.90;;;;;;12492870;28;20565;-82
2022/08/19 05:08:02;;;;;;;21.02;14.90;;;18.10;99.90;;;;;;12474157;28;20107;-83
2022/08/19 05:14:07;;;;;;;22.75;15.50;;;18.00;99.90;;;;;;12463002;28;20603;-84
2022/08/19 05:26:31;;;;;;;21.98;14.38;;;17.80;99.90;;;;;;12493090;28;20145;-83
2022/08/19 05:32:33;;;;;;;24.58;14.80;;;17.70;99.90;;;;;;12486840;28;20632;-83
2022/08/19 05:38:35;;;;;;;30.60;15.52;;;17.60;99.90;;;;;;12514626;28;20057;-83
2022/08/19 05:44:48;;;;;;;20.65;13.20;;;17.50;99.90;;;;;;12491438;28;20103;-83
2022/08/19 05:50:50;;;;;;;31.83;15.77;;;17.80;99.90;;;;;;12478203;28;20046;-83
2022/08/19 05:56:53;;;;;;;24.30;14.43;;;18.00;99.90;;;;;;12490691;28;20049;-83
2022/08/19 06:02:59;;;;;;;19.70;13.27;;;18.00;99.90;;;;;;12478839;28;20142;-83
2022/08/19 06:09:10;;;;;;;20.73;13.23;;;17.90;99.90;;;;;;12488089;28;20050;-83
2022/08/19 06:15:14;;;;;;;19.23;11.75;;;17.80;99.90;;;;;;12482274;28;20112;-83
2022/08/19 06:21:16;;;;;;;14.90;11.60;;;17.90;99.90;;;;;;12477889;28;20042;-83
2022/08/19 06:27:18;;;;;;;11.55;9.05;;;18.10;99.90;;;;;;12496456;28;21132;-83
2022/08/19 06:33:20;;;;;;;14.73;9.23;;;18.40;99.90;;;;;;12469309;28;20056;-83
2022/08/19 06:39:25;;;;;;;12.23;8.55;;;18.50;99.90;;;;;;12471744;28;20044;-83
2022/08/19 06:45:28;;;;;;;12.57;8.68;;;18.60;99.90;;;;;;12498822;28;20506;-83
2022/08/19 06:51:43;;;;;;;14.15;9.38;;;18.60;99.90;;;;;;12487256;28;20045;-83
2022/08/19 06:57:45;;;;;;;10.05;7.18;;;18.60;99.90;;;;;;12469092;28;20056;-83
2022/08/19 07:03:48;;;;;;;9.77;6.10;;;18.50;99.90;;;;;;12474882;28;20049;-83
2022/08/19 07:09:52;;;;;;;8.70;6.93;;;18.70;99.90;;;;;;12463462;28;20046;-83
2022/08/19 07:16:12;;;;;;;7.85;5.10;;;18.70;99.90;;;;;;12489402;28;20049;-83
2022/08/19 07:22:22;;;;;;;9.35;5.00;;;18.80;99.90;;;;;;12482888;28;20064;-83
2022/08/19 07:28:24;;;;;;;8.35;4.97;;;18.90;99.90;;;;;;12482642;28;20103;-83
2022/08/19 07:34:30;;;;;;;6.95;4.68;;;19.10;99.90;;;;;;12477653;28;20038;-83
2022/08/19 07:40:32;;;;;;;7.93;4.40;;;19.30;99.90;;;;;;12479714;28;20049;-83
2022/08/19 07:46:37;;;;;;;7.25;4.10;;;19.50;99.90;;;;;;12474738;28;20481;-83
2022/08/19 07:52:40;;;;;;;8.60;4.10;;;19.50;99.90;;;;;;12485417;28;20064;-83
2022/08/19 07:58:45;;;;;;;7.18;4.90;;;19.70;99.90;;;;;;12485079;28;20060;-83
2022/08/19 08:11:07;;;;;;;4.85;3.50;;;19.80;99.90;;;;;;12475856;28;20050;-83
2022/08/19 08:17:10;;;;;;;6.07;3.58;;;20.00;99.90;;;;;;12467653;28;20045;-83
2022/08/19 08:23:22;;;;;;;5.73;3.07;;;20.20;99.90;;;;;;12482540;28;20416;-83
2022/08/19 08:29:25;;;;;;;6.47;3.22;;;20.50;99.90;;;;;;12479464;28;20061;-83
2022/08/19 08:35:36;;;;;;;4.30;2.90;;;20.60;99.90;;;;;;12470288;28;20108;-84
2022/08/19 08:42:08;;;;;;;4.82;2.92;;;20.70;99.90;;;;;;12486711;28;20128;-84
2022/08/19 08:48:24;;;;;;;5.22;2.78;;;20.80;99.90;;;;;;12465453;28;20042;-84
2022/08/19 08:54:30;;;;;;;5.75;3.17;;;20.90;99.90;;;;;;12465599;28;20052;-84
2022/08/19 09:00:42;;;;;;;3.95;2.08;;;21.30;99.90;;;;;;12490847;28;20041;-84
2022/08/19 09:07:16;;;;;;;6.40;2.58;;;21.40;99.90;;;;;;12492821;28;20096;-84
2022/08/19 09:13:49;;;;;;;5.47;2.40;;;21.50;99.90;;;;;;12494848;28;20033;-84
2022/08/19 09:20:01;;;;;;;3.92;2.30;;;21.60;99.90;;;;;;12461477;28;20441;-84
2022/08/19 09:26:09;;;;;;;3.25;2.05;;;22.00;99.90;;;;;;12469132;28;20069;-84
2022/08/19 09:32:11;;;;;;;3.72;2.30;;;22.10;99.90;;;;;;12484816;28;20497;-84
2022/08/19 09:38:28;;;;;;;3.13;2.15;;;22.20;99.90;;;;;;12484299;28;20054;-84
2022/08/19 09:44:30;;;;;;;4.47;2.40;;;22.30;99.90;;;;;;12465812;28;20049;-83
2022/08/19 09:50:33;;;;;;;5.45;2.00;;;22.50;99.90;;;;;;12467867;28;20045;-84
2022/08/19 09:56:36;;;;;;;3.67;1.83;;;22.50;99.90;;;;;;12488146;28;20042;-84
2022/08/19 10:02:38;;;;;;;4.72;2.00;;;22.80;99.90;;;;;;12465854;28;20133;-83
2022/08/19 10:08:41;;;;;;;3.33;2.40;;;22.90;99.90;;;;;;12475374;28;20141;-83
2022/08/19 10:14:53;;;;;;;4.65;2.33;;;23.10;99.90;;;;;;12484283;28;20072;-84
2022/08/19 10:21:13;;;;;;;3.55;2.10;;;23.30;99.90;;;;;;12493028;28;20069;-83
2022/08/19 10:27:16;;;;;;;5.28;2.55;;;23.40;99.90;;;;;;12497183;28;20057;-83
2022/08/19 10:33:18;;;;;;;4.32;2.35;;;23.50;99.90;;;;;;12470558;28;20069;-84
2022/08/19 10:39:40;;;;;;;4.65;2.20;;;23.60;99.90;;;;;;12482924;28;20502;-84
2022/08/19 10:45:51;;;;;;;3.80;2.17;;;23.90;99.90;;;;;;12474160;28;20465;-83
2022/08/19 10:58:25;;;;;;;4.78;2.53;;;24.40;99.90;;;;;;12489568;28;20049;-83
2022/08/19 11:04:28;;;;;;;4.40;2.17;;;24.50;99.90;;;;;;12487410;28;20045;-83
2022/08/19 11:10:30;;;;;;;4.25;2.47;;;24.60;99.90;;;;;;12464922;28;20111;-84
2022/08/19 11:16:32;;;;;;;4.60;1.90;;;24.60;99.90;;;;;;12470079;28;20037;-83
2022/08/19 11:22:34;;;;;;;5.07;2.42;;;24.90;99.90;;;;;;12475645;28;20475;-83
2022/08/19 11:28:42;;;;;;;3.63;1.92;;;24.80;99.90;;;;;;12509426;28;20047;-84
2022/08/19 11:34:44;;;;;;;4.13;2.05;;;25.00;99.90;;;;;;12486534;28;20521;-83
2022/08/19 11:41:01;;;;;;;3.20;1.97;;;25.10;99.90;;;;;;12485517;28;20057;-84
2022/08/19 11:47:04;;;;;;;4.90;2.30;;;25.40;99.90;;;;;;12472709;28;20048;-85
2022/08/19 11:53:10;;;;;;;6.03;1.90;;;25.50;99.90;;;;;;12469406;28;20065;-84
2022/08/19 11:59:12;;;;;;;7.63;2.50;;;25.90;99.90;;;;;;12472543;28;20041;-84
2022/08/19 12:05:15;;;;;;;8.10;2.10;;;25.70;99.90;;;;;;12472788;28;20504;-85
2022/08/19 12:11:18;;;;;;;2.10;1.20;;;25.90;99.90;;;;;;12466099;28;20508;-85
2022/08/19 12:17:20;;;;;;;2.25;1.15;;;26.30;99.90;;;;;;12470634;28;20064;-84
2022/08/19 12:23:23;;;;;;;2.67;1.00;;;26.20;99.90;;;;;;12484672;28;20153;-83
2022/08/19 12:29:28;;;;;;;3.45;1.30;;;26.50;99.90;;;;;;12487001;28;20049;-84
2022/08/19 12:35:30;;;;;;;5.28;1.40;;;26.60;99.90;;;;;;12483436;28;20042;-84
2022/08/19 12:41:32;;;;;;;4.10;1.50;;;26.60;99.90;;;;;;12494963;28;20077;-84
2022/08/19 12:47:34;;;;;;;3.50;1.50;;;26.80;99.90;;;;;;12497858;28;20056;-84
2022/08/19 12:53:42;;;;;;;3.70;1.80;;;26.80;99.90;;;;;;12494178;28;20045;-84
2022/08/19 12:59:44;;;;;;;2.38;1.52;;;27.00;99.90;;;;;;12484687;28;20049;-85
2022/08/19 13:05:46;;;;;;;2.70;1.20;;;27.30;99.90;;;;;;12494938;28;20064;-84
2022/08/19 13:11:49;;;;;;;2.60;1.50;;;27.50;99.90;;;;;;12472090;28;20386;-84
2022/08/19 13:17:53;;;;;;;2.97;1.63;;;27.60;99.90;;;;;;12481947;28;20045;-89
2022/08/19 13:23:57;;;;;;;4.53;1.60;;;27.60;99.90;;;;;;12474309;28;20054;-87
2022/08/19 13:36:20;;;;;;;1.90;1.40;;;27.60;99.90;;;;;;12471842;28;20467;-86
2022/08/19 13:42:29;;;;;;;2.27;1.67;;;27.50;99.90;;;;;;12465957;28;20215;-86
2022/08/19 13:48:31;;;;;;;2.08;1.50;;;27.50;99.90;;;;;;12494350;28;20053;-89
2022/08/19 13:54:33;;;;;;;3.90;1.40;;;27.80;99.90;;;;;;12482568;28;20037;-84
2022/08/19 14:00:39;;;;;;;2.90;1.50;;;27.60;99.90;;;;;;12473641;28;20101;-84
2022/08/19 14:06:41;;;;;;;2.95;1.55;;;27.90;99.90;;;;;;12466362;28;20064;-84
2022/08/19 14:12:43;;;;;;;4.67;1.83;;;27.40;99.90;;;;;;12476879;28;20049;-85
2022/08/19 14:18:45;;;;;;;3.53;1.80;;;26.80;99.90;;;;;;12466123;28;20064;-84
2022/08/19 14:24:48;;;;;;;3.45;1.70;;;26.90;99.90;;;;;;12478587;28;20049;-83
2022/08/19 14:30:49;;;;;;;4.90;1.97;;;27.20;99.90;;;;;;12456191;28;20385;-83
2022/08/19 14:36:58;;;;;;;5.60;1.80;;;27.30;99.90;;;;;;12476260;28;20314;-83
2022/08/19 14:43:04;;;;;;;5.78;2.00;;;27.50;99.90;;;;;;12460599;28;20045;-83
2022/08/19 14:49:07;;;;;;;3.08;1.65;;;27.80;99.90;;;;;;12487492;28;20055;-84
2022/08/19 14:55:10;;;;;;;3.22;2.13;;;27.90;99.90;;;;;;12475221;28;20048;-84
2022/08/19 15:01:13;;;;;;;6.00;1.70;;;28.30;99.90;;;;;;12470652;28;20041;-83
2022/08/19 15:07:15;;;;;;;6.03;2.40;;;27.90;99.90;;;;;;12500440;28;20133;-83
2022/08/19 15:13:18;;;;;;;3.45;1.67;;;27.00;99.90;;;;;;12476499;28;20041;-83
2022/08/19 15:19:20;;;;;;;3.13;1.75;;;26.20;99.90;;;;;;12455412;28;20075;-83
2022/08/19 15:25:21;;;;;;;4.07;1.83;;;26.00;99.90;;;;;;12466758;28;20076;-83
2022/08/19 15:31:23;;;;;;;5.18;1.88;;;26.00;99.90;;;;;;12469508;28;20808;-83
2022/08/19 15:37:29;;;;;;;3.13;2.03;;;25.70;99.90;;;;;;12486305;28;20115;-83
2022/08/19 15:43:32;;;;;;;3.05;1.90;;;25.70;99.90;;;;;;12477858;28;20172;-83
2022/08/19 15:49:34;;;;;;;8.30;2.27;;;26.00;99.90;;;;;;12465413;28;20569;-83
2022/08/19 15:55:45;;;;;;;3.97;2.03;;;25.90;99.90;;;;;;12458266;28;20052;-83
2022/08/19 16:08:12;;;;;;;4.45;2.05;;;25.70;99.90;;;;;;12493071;28;20068;-83
2022/08/19 16:14:17;;;;;;;3.85;2.13;;;25.60;99.90;;;;;;12479880;28;20493;-83
2022/08/19 16:20:20;;;;;;;5.03;1.98;;;25.70;99.90;;;;;;12461618;28;20037;-83
2022/08/19 16:26:29;;;;;;;4.03;1.77;;;26.00;99.90;;;;;;12467719;28;20057;-83
2022/08/19 16:32:32;;;;;;;6.10;2.25;;;25.90;99.90;;;;;;12380062;28;20189;-83
2022/08/19 16:38:36;;;;;;;4.67;2.17;;;25.70;99.90;;;;;;12382870;28;20050;-83
2022/08/19 16:44:42;;;;;;;3.08;2.00;;;25.70;99.90;;;;;;12383785;28;20046;-83
2022/08/19 16:50:46;;;;;;;5.50;2.10;;;26.10;99.90;;;;;;12371895;28;20042;-83
2022/08/19 16:56:50;;;;;;;4.07;1.80;;;26.30;99.90;;;;;;12382015;28;20042;-83
2022/08/19 17:02:53;;;;;;;3.17;2.10;;;26.20;99.90;;;;;;12368549;28;20057;-83
2022/08/19 17:08:58;;;;;;;2.27;1.60;;;25.80;99.90;;;;;;12377430;28;20049;-83
2022/08/19 17:15:01;;;;;;;3.08;1.85;;;25.90;99.90;;;;;;12390987;28;20530;-83
2022/08/19 17:21:03;;;;;;;3.63;2.25;;;25.90;99.90;;;;;;12389493;28;20046;-83
2022/08/19 17:27:05;;;;;;;3.13;1.80;;;25.80;99.90;;;;;;12407009;28;20411;-83
2022/08/19 17:33:08;;;;;;;3.30;1.77;;;25.70;99.90;;;;;;12491309;28;20052;-83
2022/08/19 17:39:10;;;;;;;7.63;2.00;;;25.50;99.90;;;;;;12482362;28;20053;-83
2022/08/19 17:45:13;;;;;;;4.47;1.97;;;25.40;99.90;;;;;;12477282;28;20083;-83
2022/08/19 17:51:22;;;;;;;2.50;1.90;;;25.20;99.90;;;;;;12484526;28;20308;-83
2022/08/19 17:57:25;;;;;;;2.60;1.70;;;25.00;99.90;;;;;;12478162;28;20077;-84
2022/08/19 18:03:29;;;;;;;5.23;1.93;;;25.00;99.90;;;;;;12479432;28;20462;-83
2022/08/19 18:09:36;;;;;;;4.78;2.15;;;24.90;99.90;;;;;;12479167;28;20481;-83
2022/08/19 18:15:43;;;;;;;3.30;1.85;;;24.80;99.90;;;;;;12479193;28;20087;-84
2022/08/19 18:21:46;;;;;;;5.03;2.10;;;24.60;99.90;;;;;;12483920;28;20119;-83
2022/08/19 18:27:50;;;;;;;4.57;2.50;;;24.40;99.90;;;;;;12478218;28;20087;-83
2022/08/19 18:33:52;;;;;;;4.82;2.60;;;24.30;99.90;;;;;;12466156;28;20545;-83
2022/08/19 18:52:38;;;;;;;4.40;2.72;;;24.00;99.90;;;;;;12478977;28;20058;-83
2022/08/19 18:58:41;;;;;;;5.38;3.15;;;23.90;99.90;;;;;;12483761;28;20139;-83
2022/08/19 19:04:44;;;;;;;5.47;2.40;;;23.90;99.90;;;;;;12457802;28;20535;-83
2022/08/19 19:10:46;;;;;;;4.67;3.23;;;23.80;99.90;;;;;;12478149;28;20057;-83
2022/08/19 19:16:51;;;;;;;4.43;2.88;;;23.90;99.90;;;;;;12484326;28;20079;-83
2022/08/19 19:22:53;;;;;;;4.43;2.80;;;23.80;99.90;;;;;;12475335;28;20041;-83
2022/08/19 19:28:59;;;;;;;4.18;2.70;;;23.60;99.90;;;;;;12471451;28;20060;-83
2022/08/19 19:35:00;;;;;;;4.55;3.00;;;23.60;99.90;;;;;;12484910;28;20041;-83
2022/08/19 19:41:06;;;;;;;5.18;2.80;;;23.70;99.90;;;;;;12468277;28;20084;-82
2022/08/19 19:47:09;;;;;;;8.90;3.22;;;23.40;99.90;;;;;;12482927;28;20163;-83
2022/08/19 19:53:13;;;;;;;5.07;2.78;;;23.30;99.90;;;;;;12477673;28;20421;-82
2022/08/19 19:59:16;;;;;;;4.13;3.25;;;23.20;99.90;;;;;;12485065;28;20091;-83
2022/08/19 20:05:22;;;;;;;5.30;3.47;;;23.00;99.90;;;;;;12464122;28;20425;-83
2022/08/19 20:11:48;;;;;;;4.68;3.10;;;22.90;99.90;;;;;;12489091;28;20045;-83
2022/08/19 20:17:54;;;;;;;9.13;3.90;;;22.80;99.90;;;;;;12492061;28;20032;-83
2022/08/19 20:23:58;;;;;;;5.82;3.88;;;22.80;99.90;;;;;;12484713;28;20107;-83
2022/08/19 20:30:14;;;;;;;5.85;3.35;;;22.70;99.90;;;;;;12473557;28;20073;-83
2022/08/19 20:36:22;;;;;;;6.65;3.53;;;22.80;99.90;;;;;;12470969;28;20046;-82
2022/08/19 20:42:24;;;;;;;6.80;3.38;;;22.80;99.90;;;;;;12479722;28;20053;-82
2022/08/19 20:48:26;;;;;;;6.93;3.55;;;22.70;99.90;;;;;;12463262;28;20045;-82
2022/08/19 20:54:28;;;;;;;4.28;3.30;;;22.40;99.90;;;;;;12467637;28;20516;-82
2022/08/19 21:00:30;;;;;;;4.20;3.28;;;22.50;99.90;;;;;;12485701;28;20065;-82
2022/08/19 21:06:32;;;;;;;5.55;3.63;;;22.40;99.90;;;;;;12471750;28;20045;-82
2022/08/19 21:12:34;;;;;;;6.40;3.85;;;22.40;99.90;;;;;;12464753;28;20488;-83
2022/08/19 21:18:36;;;;;;;10.23;4.88;;;22.20;99.90;;;;;;12469795;28;20076;-82
2022/08/19 21:24:38;;;;;;;5.85;4.97;;;22.10;99.90;;;;;;12479441;28;20049;-83
2022/08/19 21:30:40;;;;;;;6.55;4.32;;;22.00;99.90;;;;;;12483424;28;20091;-83
2022/08/19 21:36:42;;;;;;;8.55;4.85;;;22.00;99.90;;;;;;12478974;28;20049;-83
2022/08/19 21:42:45;;;;;;;7.07;4.80;;;22.00;99.90;;;;;;12467511;28;20041;-83
2022/08/19 21:48:47;;;;;;;8.80;5.30;;;22.20;99.90;;;;;;12454500;28;20211;-83
2022/08/19 21:54:50;;;;;;;5.83;4.37;;;22.10;99.90;;;;;;12471620;28;20042;-83
2022/08/19 22:00:52;;;;;;;8.43;4.72;;;22.20;99.90;;;;;;12484106;28;20737;-83
2022/08/19 22:06:55;;;;;;;10.63;5.73;;;22.20;99.90;;;;;;12518952;28;20045;-83
2022/08/19 22:12:57;;;;;;;9.80;6.35;;;22.10;99.90;;;;;;12467770;28;20192;-83
2022/08/19 22:18:59;;;;;;;10.15;7.05;;;22.00;99.90;;;;;;12480324;28;20046;-83
2022/08/19 22:25:14;;;;;;;13.43;8.35;;;22.10;99.90;;;;;;12470327;28;20144;-83
2022/08/19 22:31:32;;;;;;;12.27;8.88;;;22.10;99.90;;;;;;12482477;28;20056;-82
2022/08/19 22:37:34;;;;;;;12.65;9.43;;;22.10;99.90;;;;;;12481611;28;20132;-83
2022/08/19 22:43:36;;;;;;;14.77;10.48;;;22.10;99.90;;;;;;12468794;28;20129;-83
2022/08/19 22:49:38;;;;;;;11.05;8.25;;;22.10;99.90;;;;;;12489987;28;20045;-83
2022/08/19 22:55:40;;;;;;;13.18;9.00;;;21.90;99.90;;;;;;12483071;28;20050;-83
2022/08/19 23:01:42;;;;;;;13.02;9.18;;;22.00;99.90;;;;;;12469514;28;20137;-83
2022/08/19 23:07:44;;;;;;;16.55;10.95;;;21.90;99.90;;;;;;12491676;28;20120;-83
2022/08/19 23:13:52;;;;;;;17.00;11.27;;;21.80;99.90;;;;;;12469359;28;20508;-83
2022/08/19 23:19:54;;;;;;;12.70;10.50;;;21.70;99.90;;;;;;12485214;28;20481;-83
2022/08/19 23:25:56;;;;;;;15.38;10.75;;;21.70;99.90;;;;;;12465863;28;20037;-83
2022/08/19 23:31:58;;;;;;;13.20;9.30;;;21.70;99.90;;;;;;12485859;28;20048;-83
2022/08/19 23:38:00;;;;;;;11.68;8.75;;;21.70;99.90;;;;;;12473111;28;20049;-83
2022/08/19 23:44:03;;;;;;;14.38;10.15;;;21.70;99.90;;;;;;12473940;28;20053;-83
2022/08/19 23:50:06;;;;;;;11.32;9.50;;;21.80;99.90;;;;;;12491771;28;20084;-83
2022/08/19 23:56:09;;;;;;;14.25;10.82;;;21.60;99.90;;;;;;12456842;28;20050;-82
